createdAt,value
2018-10-07T00:00:37.038Z,99.99
2018-10-07T00:01:37.022Z,99.99
2018-10-07T00:02:37.002Z,99.99
2018-10-07T00:03:36.983Z,99.99
2018-10-07T00:04:36.963Z,99.99
2018-10-07T00:05:36.953Z,99.99
2018-10-07T00:06:36.929Z,99.99
2018-10-07T00:07:36.908Z,99.99
2018-10-07T00:08:36.889Z,99.99
2018-10-07T00:09:36.875Z,99.99
2018-10-07T00:10:36.857Z,99.99
2018-10-07T00:11:36.848Z,99.99
2018-10-07T00:12:36.814Z,99.99
2018-10-07T00:13:36.814Z,99.99
2018-10-07T00:14:36.780Z,99.99
2018-10-07T00:15:36.759Z,99.99
2018-10-07T00:16:36.740Z,99.99
2018-10-07T00:17:36.725Z,99.99
2018-10-07T00:18:36.704Z,99.99
2018-10-07T00:19:36.684Z,99.99
2018-10-07T00:20:36.663Z,99.99
2018-10-07T00:21:36.649Z,99.99
2018-10-07T00:22:36.629Z,99.99
2018-10-07T00:23:36.613Z,99.99
2018-10-07T00:24:36.593Z,99.99
2018-10-07T00:25:36.574Z,99.99
2018-10-07T00:26:36.552Z,99.99
2018-10-07T00:27:36.610Z,99.99
2018-10-07T00:28:36.515Z,99.99
2018-10-07T00:29:36.500Z,99.99
2018-10-07T00:30:36.482Z,99.99
2018-10-07T00:31:36.459Z,99.99
2018-10-07T00:32:36.442Z,99.99
2018-10-07T00:33:36.432Z,99.99
2018-10-07T00:34:36.407Z,99.99
2018-10-07T00:35:36.392Z,99.99
2018-10-07T00:36:36.365Z,99.99
2018-10-07T00:37:36.346Z,99.99
2018-10-07T00:38:36.328Z,99.99
2018-10-07T00:39:36.307Z,99.99
2018-10-07T00:40:36.297Z,99.99
2018-10-07T00:41:36.272Z,99.99
2018-10-07T00:42:36.252Z,99.99
2018-10-07T00:43:36.233Z,99.99
2018-10-07T00:44:36.213Z,99.99
2018-10-07T00:45:36.195Z,99.99
2018-10-07T00:46:36.179Z,99.99
2018-10-07T00:47:36.162Z,99.99
2018-10-07T00:48:36.143Z,99.99
2018-10-07T00:49:36.119Z,99.99
2018-10-07T00:50:36.103Z,99.99
2018-10-07T00:51:36.080Z,99.99
2018-10-07T00:52:36.066Z,99.99
2018-10-07T00:53:36.044Z,99.99
2018-10-07T00:54:36.027Z,99.99
2018-10-07T00:55:36.008Z,99.99
2018-10-07T00:56:35.990Z,99.99
2018-10-07T00:57:35.974Z,99.99
2018-10-07T00:58:35.953Z,99.99
2018-10-07T00:59:35.932Z,99.99
2018-10-07T01:00:35.919Z,99.99
2018-10-07T01:01:35.895Z,99.99
2018-10-07T01:02:35.874Z,99.99
2018-10-07T01:03:35.858Z,99.99
2018-10-07T01:04:35.840Z,99.99
2018-10-07T01:05:35.819Z,99.99
2018-10-07T01:06:35.801Z,99.99
2018-10-07T01:07:35.782Z,99.99
2018-10-07T01:08:35.761Z,99.99
2018-10-07T01:09:35.741Z,99.99
2018-10-07T01:10:35.723Z,99.99
2018-10-07T01:11:35.703Z,99.99
2018-10-07T01:12:35.684Z,99.99
2018-10-07T01:13:35.671Z,99.99
2018-10-07T01:14:35.646Z,99.99
2018-10-07T01:15:35.627Z,99.99
2018-10-07T01:16:35.610Z,99.99
2018-10-07T01:17:35.589Z,99.99
2018-10-07T01:18:35.569Z,99.99
2018-10-07T01:19:35.551Z,99.99
2018-10-07T01:20:35.539Z,99.99
2018-10-07T01:21:35.513Z,99.99
2018-10-07T01:22:35.496Z,99.99
2018-10-07T01:23:35.478Z,99.99
2018-10-07T01:24:35.455Z,99.99
2018-10-07T01:25:35.446Z,99.99
2018-10-07T01:26:35.430Z,99.99
2018-10-07T01:27:35.400Z,99.99
2018-10-07T01:28:35.379Z,99.99
2018-10-07T01:29:35.361Z,99.99
2018-10-07T01:30:35.341Z,99.99
2018-10-07T01:31:35.326Z,99.99
2018-10-07T01:32:35.314Z,99.99
2018-10-07T01:33:35.295Z,99.99
2018-10-07T01:34:35.274Z,99.99
2018-10-07T01:35:35.259Z,99.99
2018-10-07T01:36:35.227Z,99.99
2018-10-07T01:37:35.216Z,99.99
2018-10-07T01:38:35.191Z,99.99
2018-10-07T01:39:35.172Z,99.99
2018-10-07T01:40:35.151Z,99.99
2018-10-07T01:41:35.133Z,99.99
2018-10-07T01:42:35.178Z,99.99
2018-10-07T01:43:35.095Z,99.99
2018-10-07T01:44:35.074Z,99.99
2018-10-07T01:45:35.062Z,99.99
2018-10-07T01:46:35.048Z,99.99
2018-10-07T01:47:35.028Z,99.99
2018-10-07T01:48:35.001Z,99.99
2018-10-07T01:49:34.981Z,99.99
2018-10-07T01:50:34.962Z,99.99
2018-10-07T01:51:34.943Z,99.99
2018-10-07T01:52:34.930Z,99.99
2018-10-07T01:53:34.906Z,99.99
2018-10-07T01:54:34.887Z,99.99
2018-10-07T01:55:34.866Z,99.99
2018-10-07T01:56:34.846Z,99.99
2018-10-07T01:57:34.834Z,99.99
2018-10-07T01:58:34.813Z,99.99
2018-10-07T01:59:34.796Z,99.99
2018-10-07T02:00:34.772Z,99.99
2018-10-07T02:01:34.753Z,99.99
2018-10-07T02:02:34.733Z,99.99
2018-10-07T02:03:34.714Z,99.99
2018-10-07T02:04:34.698Z,99.99
2018-10-07T02:05:34.676Z,99.99
2018-10-07T02:06:34.663Z,99.99
2018-10-07T02:07:34.640Z,99.99
2018-10-07T02:08:34.620Z,99.99
2018-10-07T02:09:34.601Z,99.99
2018-10-07T02:10:34.585Z,99.99
2018-10-07T02:11:34.567Z,99.99
2018-10-07T02:12:34.552Z,99.99
2018-10-07T02:13:34.526Z,99.99
2018-10-07T02:14:34.508Z,99.99
2018-10-07T02:15:34.486Z,99.99
2018-10-07T02:16:34.468Z,99.99
2018-10-07T02:17:34.448Z,99.99
2018-10-07T02:18:34.429Z,99.99
2018-10-07T02:19:34.415Z,99.99
2018-10-07T02:20:34.391Z,99.99
2018-10-07T02:21:34.373Z,99.99
2018-10-07T02:22:34.354Z,99.99
2018-10-07T02:23:34.336Z,99.99
2018-10-07T02:24:34.316Z,99.99
2018-10-07T02:25:34.295Z,99.99
2018-10-07T02:26:34.279Z,99.99
2018-10-07T02:27:34.260Z,99.99
2018-10-07T02:28:34.241Z,99.99
2018-10-07T02:29:34.225Z,99.99
2018-10-07T02:30:34.203Z,99.99
2018-10-07T02:31:34.184Z,99.99
2018-10-07T02:32:34.169Z,99.99
2018-10-07T02:33:34.145Z,99.99
2018-10-07T02:34:34.134Z,99.99
2018-10-07T02:35:34.105Z,99.99
2018-10-07T02:36:34.087Z,99.99
2018-10-07T02:37:34.067Z,99.99
2018-10-07T02:38:34.054Z,99.99
2018-10-07T02:39:34.039Z,99.99
2018-10-07T02:40:34.013Z,99.99
2018-10-07T02:41:33.993Z,99.99
2018-10-07T02:42:33.971Z,99.99
2018-10-07T02:43:33.951Z,99.99
2018-10-07T02:44:33.940Z,99.99
2018-10-07T02:45:33.913Z,99.99
2018-10-07T02:46:33.894Z,99.99
2018-10-07T02:47:33.872Z,99.99
2018-10-07T02:48:33.853Z,99.99
2018-10-07T02:49:33.833Z,99.99
2018-10-07T02:50:33.814Z,99.99
2018-10-07T02:51:33.796Z,99.99
2018-10-07T02:52:33.774Z,99.99
2018-10-07T02:53:33.755Z,99.99
2018-10-07T02:54:33.738Z,99.99
2018-10-07T02:55:33.714Z,99.99
2018-10-07T02:56:33.696Z,99.99
2018-10-07T02:57:33.683Z,99.99
2018-10-07T02:58:33.657Z,99.99
2018-10-07T02:59:33.639Z,99.99
2018-10-07T03:00:33.622Z,99.99
2018-10-07T03:01:33.602Z,99.99
2018-10-07T03:02:33.581Z,99.99
2018-10-07T03:03:33.559Z,99.99
2018-10-07T03:04:33.543Z,99.99
2018-10-07T03:05:33.524Z,99.99
2018-10-07T03:06:33.509Z,99.99
2018-10-07T03:07:33.480Z,99.99
2018-10-07T03:08:33.460Z,99.99
2018-10-07T03:09:33.441Z,99.99
2018-10-07T03:10:33.423Z,99.99
2018-10-07T03:11:33.401Z,99.99
2018-10-07T03:12:33.381Z,99.99
2018-10-07T03:13:33.361Z,99.99
2018-10-07T03:14:33.342Z,99.99
2018-10-07T03:15:33.330Z,99.99
2018-10-07T03:16:33.305Z,99.99
2018-10-07T03:17:33.289Z,99.99
2018-10-07T03:18:33.263Z,99.99
2018-10-07T03:19:33.249Z,99.99
2018-10-07T03:20:33.232Z,99.99
2018-10-07T03:21:33.201Z,99.99
2018-10-07T03:22:33.189Z,99.99
2018-10-07T03:23:33.163Z,99.99
2018-10-07T03:24:33.143Z,99.99
2018-10-07T03:25:33.121Z,99.99
2018-10-07T03:26:33.107Z,99.99
2018-10-07T03:27:33.085Z,99.99
2018-10-07T03:28:33.062Z,99.99
2018-10-07T03:29:33.129Z,99.99
2018-10-07T03:30:33.023Z,99.99
2018-10-07T03:31:33.006Z,99.99
2018-10-07T03:32:32.986Z,99.99
2018-10-07T03:33:32.965Z,99.99
2018-10-07T03:34:32.944Z,99.99
2018-10-07T03:35:32.924Z,99.99
2018-10-07T03:36:32.908Z,99.99
2018-10-07T03:37:32.884Z,99.99
2018-10-07T03:38:32.866Z,99.99
2018-10-07T03:39:32.843Z,99.99
2018-10-07T03:40:32.825Z,99.99
2018-10-07T03:41:32.808Z,99.99
2018-10-07T03:42:32.783Z,99.99
2018-10-07T03:43:32.765Z,99.99
2018-10-07T03:44:32.742Z,99.99
2018-10-07T03:45:32.725Z,99.99
2018-10-07T03:46:32.707Z,99.99
2018-10-07T03:47:32.682Z,99.99
2018-10-07T03:48:32.667Z,99.99
2018-10-07T03:49:32.643Z,99.99
2018-10-07T03:50:32.623Z,99.99
2018-10-07T03:51:32.600Z,99.99
2018-10-07T03:52:32.581Z,99.99
2018-10-07T03:53:32.560Z,99.99
2018-10-07T03:54:32.543Z,99.99
2018-10-07T03:55:32.532Z,99.99
2018-10-07T03:56:32.500Z,99.99
2018-10-07T03:57:32.482Z,99.99
2018-10-07T03:58:32.461Z,99.99
2018-10-07T03:59:32.439Z,99.99
2018-10-07T04:00:32.421Z,99.99
2018-10-07T04:01:32.401Z,99.99
2018-10-07T04:02:32.379Z,99.99
2018-10-07T04:03:32.358Z,99.99
2018-10-07T04:04:32.338Z,99.99
2018-10-07T04:05:32.318Z,99.99
2018-10-07T04:06:32.300Z,99.99
2018-10-07T04:07:32.276Z,99.99
2018-10-07T04:08:32.257Z,99.99
2018-10-07T04:09:32.240Z,99.99
2018-10-07T04:10:32.217Z,99.99
2018-10-07T04:11:32.196Z,99.99
2018-10-07T04:12:32.184Z,99.99
2018-10-07T04:13:32.157Z,99.99
2018-10-07T04:14:32.137Z,99.99
2018-10-07T04:15:32.114Z,99.99
2018-10-07T04:16:32.096Z,99.99
2018-10-07T04:17:32.072Z,99.99
2018-10-07T04:18:32.059Z,99.99
2018-10-07T04:19:32.035Z,99.99
2018-10-07T04:20:32.013Z,99.99
2018-10-07T04:21:31.994Z,99.99
2018-10-07T04:22:31.972Z,99.99
2018-10-07T04:23:31.950Z,99.99
2018-10-07T04:24:31.942Z,99.99
2018-10-07T04:25:31.916Z,99.99
2018-10-07T04:26:31.891Z,99.99
2018-10-07T04:27:31.869Z,99.99
2018-10-07T04:28:31.851Z,99.99
2018-10-07T04:29:31.832Z,99.99
2018-10-07T04:30:31.810Z,99.99
2018-10-07T04:31:31.790Z,99.99
2018-10-07T04:32:31.770Z,99.99
2018-10-07T04:33:31.750Z,99.99
2018-10-07T04:34:31.730Z,99.99
2018-10-07T04:35:31.708Z,99.99
2018-10-07T04:36:31.689Z,99.99
2018-10-07T04:37:31.669Z,99.99
2018-10-07T04:38:31.653Z,99.99
2018-10-07T04:39:31.627Z,99.99
2018-10-07T04:40:31.607Z,99.99
2018-10-07T04:41:31.587Z,99.99
2018-10-07T04:42:31.567Z,99.99
2018-10-07T04:43:31.546Z,99.99
2018-10-07T04:44:31.525Z,99.99
2018-10-07T04:45:31.506Z,99.99
2018-10-07T04:46:31.621Z,99.99
2018-10-07T04:47:31.473Z,99.99
2018-10-07T04:48:31.442Z,99.99
2018-10-07T04:49:31.422Z,99.99
2018-10-07T04:50:31.402Z,99.99
2018-10-07T04:51:31.386Z,99.99
2018-10-07T04:52:31.359Z,99.99
2018-10-07T04:53:31.339Z,99.99
2018-10-07T04:54:31.325Z,99.99
2018-10-07T04:55:31.301Z,99.99
2018-10-07T04:56:31.278Z,99.99
2018-10-07T04:57:31.259Z,99.99
2018-10-07T04:58:31.243Z,99.99
2018-10-07T04:59:31.221Z,99.99
2018-10-07T05:00:31.204Z,99.99
2018-10-07T05:01:31.180Z,99.99
2018-10-07T05:02:31.158Z,99.99
2018-10-07T05:03:31.200Z,99.99
2018-10-07T05:04:31.116Z,99.99
2018-10-07T05:05:31.098Z,99.99
2018-10-07T05:06:31.081Z,99.99
2018-10-07T05:07:31.059Z,99.99
2018-10-07T05:08:31.033Z,99.99
2018-10-07T05:09:31.018Z,99.99
2018-10-07T05:10:30.995Z,99.99
2018-10-07T05:11:30.973Z,99.99
2018-10-07T05:12:30.965Z,99.99
2018-10-07T05:13:30.937Z,99.99
2018-10-07T05:14:30.911Z,99.99
2018-10-07T05:15:30.889Z,99.99
2018-10-07T05:16:30.869Z,99.99
2018-10-07T05:17:30.853Z,99.99
2018-10-07T05:18:30.828Z,99.99
2018-10-07T05:19:30.813Z,99.99
2018-10-07T05:20:30.787Z,99.99
2018-10-07T05:21:30.771Z,99.99
2018-10-07T05:22:30.749Z,99.99
2018-10-07T05:23:30.725Z,99.99
2018-10-07T05:24:30.705Z,99.99
2018-10-07T05:25:30.688Z,99.99
2018-10-07T05:26:30.669Z,99.99
2018-10-07T05:27:30.643Z,99.99
2018-10-07T05:28:30.623Z,99.99
2018-10-07T05:29:30.605Z,99.99
2018-10-07T05:30:30.581Z,99.99
2018-10-07T05:31:30.563Z,99.99
2018-10-07T05:32:30.539Z,99.99
2018-10-07T05:33:30.561Z,99.99
2018-10-07T05:34:30.500Z,99.99
2018-10-07T05:35:30.478Z,99.99
2018-10-07T05:36:30.459Z,99.99
2018-10-07T05:37:30.438Z,99.99
2018-10-07T05:38:30.418Z,99.99
2018-10-07T05:39:30.397Z,99.99
2018-10-07T05:40:30.376Z,99.99
2018-10-07T05:41:30.359Z,99.99
2018-10-07T05:42:30.335Z,99.99
2018-10-07T05:43:30.315Z,99.99
2018-10-07T05:44:30.478Z,99.99
2018-10-07T05:45:30.289Z,99.99
2018-10-07T05:46:30.255Z,99.99
2018-10-07T05:47:30.234Z,99.99
2018-10-07T05:48:30.213Z,99.99
2018-10-07T05:49:30.192Z,99.99
2018-10-07T05:50:30.172Z,99.99
2018-10-07T05:51:30.150Z,99.99
2018-10-07T05:52:30.133Z,99.99
2018-10-07T05:53:30.112Z,99.99
2018-10-07T05:54:30.096Z,99.99
2018-10-07T05:55:30.125Z,99.99
2018-10-07T05:56:30.050Z,99.99
2018-10-07T05:57:30.034Z,99.99
2018-10-07T05:58:30.014Z,99.99
2018-10-07T05:59:30.000Z,99.99
2018-10-07T06:00:29.973Z,99.99
2018-10-07T06:01:29.966Z,99.99
2018-10-07T06:02:29.928Z,99.99
2018-10-07T06:03:29.904Z,99.99
2018-10-07T06:04:29.887Z,99.99
2018-10-07T06:05:29.865Z,99.99
2018-10-07T06:06:29.845Z,99.99
2018-10-07T06:07:29.828Z,99.99
2018-10-07T06:08:29.802Z,99.99
2018-10-07T06:09:29.783Z,99.99
2018-10-07T06:10:29.767Z,99.99
2018-10-07T06:11:29.741Z,99.99
2018-10-07T06:12:29.722Z,99.99
2018-10-07T06:13:29.702Z,99.99
2018-10-07T06:14:29.680Z,99.99
2018-10-07T06:15:29.659Z,99.99
2018-10-07T06:16:29.637Z,99.99
2018-10-07T06:17:29.620Z,99.99
2018-10-07T06:18:29.605Z,99.99
2018-10-07T06:19:29.584Z,99.99
2018-10-07T06:20:29.608Z,99.99
2018-10-07T06:21:29.546Z,99.99
2018-10-07T06:22:29.518Z,99.99
2018-10-07T06:23:29.496Z,99.99
2018-10-07T06:24:29.476Z,99.99
2018-10-07T06:25:29.458Z,99.99
2018-10-07T06:26:29.445Z,99.84
2018-10-07T06:27:29.414Z,99.99
2018-10-07T06:28:29.392Z,99.65
2018-10-07T06:29:29.371Z,99.99
2018-10-07T06:30:29.349Z,99.99
2018-10-07T06:31:29.335Z,99.99
2018-10-07T06:32:29.314Z,99.99
2018-10-07T06:33:29.297Z,99.99
2018-10-07T06:34:29.273Z,99.99
2018-10-07T06:35:29.250Z,99.99
2018-10-07T06:36:29.227Z,99.99
2018-10-07T06:37:29.204Z,99.99
2018-10-07T06:38:29.206Z,99.99
2018-10-07T06:39:29.169Z,99.99
2018-10-07T06:40:29.145Z,99.99
2018-10-07T06:41:29.126Z,99.99
2018-10-07T06:42:29.110Z,99.99
2018-10-07T06:43:29.086Z,99.99
2018-10-07T06:44:29.070Z,99.99
2018-10-07T06:45:29.088Z,99.99
2018-10-07T06:46:29.020Z,99.99
2018-10-07T06:47:28.999Z,99.99
2018-10-07T06:48:28.977Z,99.99
2018-10-07T06:49:28.959Z,99.99
2018-10-07T06:50:28.938Z,99.99
2018-10-07T06:51:29.017Z,99.99
2018-10-07T06:52:28.900Z,99.99
2018-10-07T06:53:28.877Z,99.99
2018-10-07T06:54:28.875Z,99.99
2018-10-07T06:55:28.842Z,99.99
2018-10-07T06:56:28.814Z,99.99
2018-10-07T06:57:28.804Z,99.99
2018-10-07T06:58:28.776Z,99.99
2018-10-07T06:59:28.819Z,99.99
2018-10-07T07:00:28.732Z,99.99
2018-10-07T07:01:28.711Z,99.99
2018-10-07T07:02:28.703Z,99.99
2018-10-07T07:03:28.675Z,99.99
2018-10-07T07:04:28.655Z,99.84
2018-10-07T07:05:28.629Z,99.99
2018-10-07T07:06:28.686Z,97.94
2018-10-07T07:07:28.587Z,97.84
2018-10-07T07:08:28.568Z,97.84
2018-10-07T07:09:28.546Z,97.08
2018-10-07T07:10:28.537Z,96.80
2018-10-07T07:11:28.506Z,97.27
2018-10-07T07:12:28.485Z,96.70
2018-10-07T07:13:28.465Z,97.65
2018-10-07T07:14:28.446Z,96.51
2018-10-07T07:15:28.424Z,96.80
2018-10-07T07:16:28.403Z,96.89
2018-10-07T07:17:28.387Z,96.80
2018-10-07T07:18:28.361Z,96.80
2018-10-07T07:19:28.342Z,96.89
2018-10-07T07:20:28.321Z,96.70
2018-10-07T07:21:28.313Z,96.51
2018-10-07T07:22:28.280Z,95.08
2018-10-07T07:23:28.277Z,94.79
2018-10-07T07:24:28.240Z,94.03
2018-10-07T07:25:28.218Z,94.22
2018-10-07T07:26:28.209Z,94.60
2018-10-07T07:27:28.188Z,94.13
2018-10-07T07:28:28.169Z,95.17
2018-10-07T07:29:28.156Z,94.98
2018-10-07T07:30:28.125Z,95.08
2018-10-07T07:31:28.186Z,95.65
2018-10-07T07:32:28.079Z,94.70
2018-10-07T07:33:28.059Z,94.84
2018-10-07T07:34:28.038Z,94.98
2018-10-07T07:35:28.023Z,94.17
2018-10-07T07:36:27.993Z,94.17
2018-10-07T07:37:27.972Z,93.89
2018-10-07T07:38:27.959Z,93.93
2018-10-07T07:39:27.932Z,93.08
2018-10-07T07:40:27.912Z,93.74
2018-10-07T07:41:27.896Z,93.08
2018-10-07T07:42:28.031Z,93.74
2018-10-07T07:43:27.857Z,92.79
2018-10-07T07:44:27.831Z,92.69
2018-10-07T07:45:27.809Z,93.46
2018-10-07T07:46:27.787Z,92.50
2018-10-07T07:47:27.773Z,92.32
2018-10-07T07:48:27.750Z,92.79
2018-10-07T07:49:27.725Z,92.32
2018-10-07T07:50:27.706Z,93.08
2018-10-07T07:51:27.689Z,92.69
2018-10-07T07:52:27.664Z,92.89
2018-10-07T07:53:27.645Z,90.89
2018-10-07T07:54:27.631Z,91.17
2018-10-07T07:55:27.600Z,90.70
2018-10-07T07:56:27.584Z,91.27
2018-10-07T07:57:27.574Z,90.70
2018-10-07T07:58:27.544Z,90.74
2018-10-07T07:59:27.532Z,88.51
2018-10-07T08:00:27.503Z,88.36
2018-10-07T08:01:27.482Z,87.40
2018-10-07T08:02:27.459Z,88.79
2018-10-07T08:03:27.441Z,88.55
2018-10-07T08:04:27.432Z,87.50
2018-10-07T08:05:27.403Z,87.60
2018-10-07T08:06:27.380Z,87.98
2018-10-07T08:07:27.357Z,87.21
2018-10-07T08:08:27.339Z,87.12
2018-10-07T08:09:27.325Z,86.16
2018-10-07T08:10:27.301Z,85.78
2018-10-07T08:11:27.283Z,87.60
2018-10-07T08:12:27.270Z,87.12
2018-10-07T08:13:27.236Z,85.60
2018-10-07T08:14:27.218Z,85.21
2018-10-07T08:15:27.195Z,85.69
2018-10-07T08:16:27.176Z,84.92
2018-10-07T08:17:27.233Z,85.41
2018-10-07T08:18:27.137Z,85.60
2018-10-07T08:19:27.115Z,85.02
2018-10-07T08:20:27.097Z,83.88
2018-10-07T08:21:27.082Z,84.92
2018-10-07T08:22:27.056Z,84.55
2018-10-07T08:23:27.093Z,83.21
2018-10-07T08:24:27.020Z,84.45
2018-10-07T08:25:27.007Z,84.74
2018-10-07T08:26:26.976Z,84.16
2018-10-07T08:27:26.956Z,83.88
2018-10-07T08:28:26.933Z,83.59
2018-10-07T08:29:26.920Z,83.31
2018-10-07T08:30:26.894Z,83.78
2018-10-07T08:31:26.873Z,83.69
2018-10-07T08:32:26.854Z,84.36
2018-10-07T08:33:26.841Z,83.31
2018-10-07T08:34:26.815Z,83.12
2018-10-07T08:35:26.791Z,83.21
2018-10-07T08:36:26.775Z,84.26
2018-10-07T08:37:26.759Z,84.97
2018-10-07T08:38:26.732Z,84.78
2018-10-07T08:39:26.709Z,83.73
2018-10-07T08:40:26.693Z,82.97
2018-10-07T08:41:26.673Z,82.97
2018-10-07T08:42:26.648Z,83.16
2018-10-07T08:43:26.627Z,83.06
2018-10-07T08:44:26.607Z,82.30
2018-10-07T08:45:26.592Z,83.25
2018-10-07T08:46:26.569Z,83.44
2018-10-07T08:47:26.553Z,83.25
2018-10-07T08:48:26.538Z,84.30
2018-10-07T08:49:26.507Z,83.25
2018-10-07T08:50:26.487Z,82.87
2018-10-07T08:51:26.466Z,82.40
2018-10-07T08:52:26.445Z,82.20
2018-10-07T08:53:26.433Z,82.49
2018-10-07T08:54:26.407Z,82.68
2018-10-07T08:55:26.384Z,82.49
2018-10-07T08:56:26.478Z,82.78
2018-10-07T08:57:26.352Z,82.20
2018-10-07T08:58:26.342Z,82.87
2018-10-07T08:59:26.309Z,82.78
2018-10-07T09:00:26.285Z,82.20
2018-10-07T09:01:26.265Z,82.87
2018-10-07T09:02:26.257Z,82.97
2018-10-07T09:03:26.223Z,82.87
2018-10-07T09:04:26.205Z,81.73
2018-10-07T09:05:26.192Z,81.54
2018-10-07T09:06:26.175Z,79.82
2018-10-07T09:07:26.150Z,80.05
2018-10-07T09:08:26.122Z,79.57
2018-10-07T09:09:26.101Z,79.38
2018-10-07T09:10:26.090Z,79.48
2018-10-07T09:11:27.098Z,79.38
2018-10-07T09:12:26.043Z,79.77
2018-10-07T09:13:26.024Z,79.00
2018-10-07T09:14:26.006Z,80.05
2018-10-07T09:15:25.982Z,78.14
2018-10-07T09:16:25.968Z,77.76
2018-10-07T09:17:25.949Z,77.38
2018-10-07T09:18:25.934Z,78.14
2018-10-07T09:19:25.903Z,78.14
2018-10-07T09:20:25.879Z,78.81
2018-10-07T09:21:25.878Z,77.42
2018-10-07T09:22:25.850Z,75.66
2018-10-07T09:23:25.835Z,75.98
2018-10-07T09:24:25.803Z,76.18
2018-10-07T09:25:25.787Z,75.98
2018-10-07T09:26:25.767Z,75.70
2018-10-07T09:27:25.807Z,76.18
2018-10-07T09:28:25.727Z,74.65
2018-10-07T09:29:25.703Z,74.08
2018-10-07T09:30:25.687Z,74.32
2018-10-07T09:31:25.665Z,74.52
2018-10-07T09:32:25.698Z,74.42
2018-10-07T09:33:25.622Z,74.71
2018-10-07T09:34:25.605Z,74.55
2018-10-07T09:35:25.588Z,74.46
2018-10-07T09:36:25.564Z,73.66
2018-10-07T09:37:25.547Z,73.66
2018-10-07T09:38:25.529Z,73.94
2018-10-07T09:39:25.542Z,74.46
2018-10-07T09:40:25.488Z,73.60
2018-10-07T09:41:25.475Z,73.50
2018-10-07T09:42:25.450Z,74.27
2018-10-07T09:43:25.422Z,73.66
2018-10-07T09:44:25.414Z,74.37
2018-10-07T09:45:25.387Z,74.46
2018-10-07T09:46:25.383Z,74.46
2018-10-07T09:47:25.345Z,74.65
2018-10-07T09:48:25.327Z,74.74
2018-10-07T09:49:25.405Z,74.55
2018-10-07T09:50:25.288Z,75.13
2018-10-07T09:51:25.269Z,74.55
2018-10-07T09:52:25.297Z,75.22
2018-10-07T09:53:25.227Z,75.22
2018-10-07T09:54:25.215Z,74.46
2018-10-07T09:55:25.205Z,74.65
2018-10-07T09:56:25.170Z,74.55
2018-10-07T09:57:25.151Z,74.55
2018-10-07T09:58:25.142Z,74.84
2018-10-07T09:59:25.107Z,75.83
2018-10-07T10:00:25.089Z,75.26
2018-10-07T10:01:25.158Z,73.79
2018-10-07T10:02:25.055Z,74.27
2018-10-07T10:03:25.034Z,74.93
2018-10-07T10:04:25.212Z,74.93
2018-10-07T10:05:24.992Z,73.50
2018-10-07T10:06:24.977Z,73.50
2018-10-07T10:07:24.951Z,74.17
2018-10-07T10:08:24.930Z,74.17
2018-10-07T10:09:24.920Z,73.60
2018-10-07T10:10:24.896Z,73.69
2018-10-07T10:11:25.066Z,73.98
2018-10-07T10:12:24.852Z,74.65
2018-10-07T10:13:24.846Z,75.07
2018-10-07T10:14:24.819Z,73.35
2018-10-07T10:15:24.795Z,73.03
2018-10-07T10:16:24.782Z,73.60
2018-10-07T10:17:24.773Z,74.27
2018-10-07T10:18:24.738Z,73.41
2018-10-07T10:19:24.734Z,73.50
2018-10-07T10:20:24.697Z,74.27
2018-10-07T10:21:24.676Z,74.37
2018-10-07T10:22:24.668Z,73.50
2018-10-07T10:23:24.642Z,73.69
2018-10-07T10:24:24.619Z,73.92
2018-10-07T10:25:24.613Z,74.49
2018-10-07T10:26:24.581Z,73.63
2018-10-07T10:27:24.564Z,73.83
2018-10-07T10:28:24.541Z,72.78
2018-10-07T10:29:24.535Z,72.87
2018-10-07T10:30:24.637Z,73.63
2018-10-07T10:31:24.482Z,73.54
2018-10-07T10:32:24.465Z,72.87
2018-10-07T10:33:24.443Z,73.07
2018-10-07T10:34:24.424Z,73.07
2018-10-07T10:35:24.403Z,73.19
2018-10-07T10:36:24.388Z,73.00
2018-10-07T10:37:24.370Z,73.67
2018-10-07T10:38:24.348Z,72.72
2018-10-07T10:39:24.349Z,73.58
2018-10-07T10:40:24.307Z,72.68
2018-10-07T10:41:24.290Z,71.82
2018-10-07T10:42:24.274Z,73.07
2018-10-07T10:43:24.249Z,72.87
2018-10-07T10:44:24.238Z,73.19
2018-10-07T10:45:24.221Z,73.39
2018-10-07T10:46:24.193Z,73.19
2018-10-07T10:47:24.175Z,71.76
2018-10-07T10:48:24.154Z,71.38
2018-10-07T10:49:24.147Z,71.86
2018-10-07T10:50:24.127Z,71.76
2018-10-07T10:51:24.097Z,70.81
2018-10-07T10:52:24.085Z,70.90
2018-10-07T10:53:24.066Z,70.61
2018-10-07T10:54:24.044Z,70.42
2018-10-07T10:55:24.022Z,70.42
2018-10-07T10:56:24.010Z,70.23
2018-10-07T10:57:23.987Z,69.76
2018-10-07T10:58:23.968Z,69.47
2018-10-07T10:59:23.949Z,68.70
2018-10-07T11:00:23.932Z,69.18
2018-10-07T11:01:23.911Z,69.05
2018-10-07T11:02:23.896Z,69.27
2018-10-07T11:03:23.878Z,70.52
2018-10-07T11:04:23.879Z,69.95
2018-10-07T11:05:23.829Z,69.66
2018-10-07T11:06:23.811Z,68.80
2018-10-07T11:07:23.797Z,68.80
2018-10-07T11:08:23.770Z,68.23
2018-10-07T11:09:23.753Z,69.18
2018-10-07T11:10:23.742Z,68.23
2018-10-07T11:11:23.719Z,68.41
2018-10-07T11:12:23.696Z,68.80
2018-10-07T11:13:23.677Z,68.26
2018-10-07T11:14:23.668Z,68.61
2018-10-07T11:15:23.671Z,68.26
2018-10-07T11:16:23.619Z,67.30
2018-10-07T11:17:23.602Z,66.89
2018-10-07T11:18:23.584Z,67.75
2018-10-07T11:19:23.596Z,68.70
2018-10-07T11:20:23.539Z,68.35
2018-10-07T11:21:23.525Z,66.89
2018-10-07T11:22:23.504Z,66.79
2018-10-07T11:23:23.484Z,66.50
2018-10-07T11:24:23.467Z,66.70
2018-10-07T11:25:23.466Z,67.75
2018-10-07T11:26:23.429Z,67.49
2018-10-07T11:27:23.427Z,67.69
2018-10-07T11:28:23.402Z,66.54
2018-10-07T11:29:23.371Z,65.55
2018-10-07T11:30:23.354Z,65.74
2018-10-07T11:31:23.334Z,66.70
2018-10-07T11:32:23.312Z,66.70
2018-10-07T11:33:23.293Z,66.70
2018-10-07T11:34:23.275Z,66.63
2018-10-07T11:35:23.256Z,66.50
2018-10-07T11:36:23.241Z,66.31
2018-10-07T11:37:23.221Z,66.31
2018-10-07T11:38:23.198Z,66.13
2018-10-07T11:39:23.179Z,65.84
2018-10-07T11:40:23.161Z,66.31
2018-10-07T11:41:23.150Z,67.21
2018-10-07T11:42:23.130Z,66.73
2018-10-07T11:43:23.101Z,65.11
2018-10-07T11:44:23.083Z,64.82
2018-10-07T11:45:23.066Z,64.22
2018-10-07T11:46:23.050Z,65.36
2018-10-07T11:47:23.037Z,65.11
2018-10-07T11:48:23.005Z,64.34
2018-10-07T11:49:22.989Z,65.55
2018-10-07T11:50:22.972Z,66.44
2018-10-07T11:51:22.962Z,66.06
2018-10-07T11:52:22.935Z,64.62
2018-10-07T11:53:22.913Z,64.82
2018-10-07T11:54:22.894Z,65.11
2018-10-07T11:55:22.877Z,64.34
2018-10-07T11:56:22.859Z,64.25
2018-10-07T11:57:22.840Z,64.05
2018-10-07T11:58:22.827Z,65.58
2018-10-07T11:59:22.798Z,65.01
2018-10-07T12:00:22.776Z,64.95
2018-10-07T12:01:22.767Z,63.99
2018-10-07T12:02:22.857Z,63.29
2018-10-07T12:03:22.724Z,63.51
2018-10-07T12:04:22.714Z,63.99
2018-10-07T12:05:22.692Z,63.51
2018-10-07T12:06:22.666Z,63.99
2018-10-07T12:07:22.677Z,63.67
2018-10-07T12:08:22.635Z,63.96
2018-10-07T12:09:22.617Z,64.43
2018-10-07T12:10:22.683Z,63.60
2018-10-07T12:11:22.574Z,64.37
2018-10-07T12:12:22.559Z,63.99
2018-10-07T12:13:22.537Z,64.25
2018-10-07T12:14:22.519Z,64.25
2018-10-07T12:15:22.500Z,64.25
2018-10-07T12:16:22.529Z,65.97
2018-10-07T12:17:22.462Z,64.82
2018-10-07T12:18:22.443Z,64.91
2018-10-07T12:19:22.426Z,65.48
2018-10-07T12:20:22.412Z,65.68
2018-10-07T12:21:22.389Z,65.48
2018-10-07T12:22:22.378Z,65.48
2018-10-07T12:23:22.351Z,66.44
2018-10-07T12:24:22.338Z,66.06
2018-10-07T12:25:22.313Z,66.63
2018-10-07T12:26:22.305Z,64.53
2018-10-07T12:27:22.275Z,64.05
2018-10-07T12:28:22.259Z,63.67
2018-10-07T12:29:22.239Z,64.28
2018-10-07T12:30:22.225Z,63.99
2018-10-07T12:31:22.210Z,63.51
2018-10-07T12:32:22.184Z,63.13
2018-10-07T12:33:22.172Z,62.17
2018-10-07T12:34:22.153Z,62.46
2018-10-07T12:35:22.126Z,63.42
2018-10-07T12:36:22.109Z,62.17
2018-10-07T12:37:22.097Z,62.46
2018-10-07T12:38:22.076Z,62.27
2018-10-07T12:39:22.064Z,62.46
2018-10-07T12:40:22.038Z,62.65
2018-10-07T12:41:22.024Z,62.08
2018-10-07T12:42:21.999Z,61.88
2018-10-07T12:43:21.974Z,61.79
2018-10-07T12:44:21.961Z,62.55
2018-10-07T12:45:21.943Z,62.17
2018-10-07T12:46:21.921Z,62.37
2018-10-07T12:47:21.907Z,62.55
2018-10-07T12:48:21.888Z,62.46
2018-10-07T12:49:21.878Z,63.51
2018-10-07T12:50:21.847Z,63.03
2018-10-07T12:51:21.828Z,62.17
2018-10-07T12:52:21.808Z,62.17